createdAt,value
2019-06-20T00:01:09.100Z,100046.52
2019-06-20T00:03:16.683Z,100048.73
2019-06-20T00:05:24.331Z,100047.73
2019-06-20T00:07:31.872Z,100051.46
2019-06-20T00:09:39.496Z,100053.73
2019-06-20T00:11:46.880Z,100045.20
2019-06-20T00:13:54.358Z,100051.41
2019-06-20T00:16:01.861Z,100046.98
2019-06-20T00:18:09.432Z,100059.59
2019-06-20T00:20:17.251Z,100062.41
2019-06-20T00:22:24.777Z,100056.67
2019-06-20T00:24:32.242Z,100057.95
2019-06-20T00:26:39.736Z,100061.47
2019-06-20T00:28:47.095Z,100055.57
2019-06-20T00:30:54.490Z,100046.34
2019-06-20T00:33:01.886Z,100043.28
2019-06-20T00:35:09.811Z,100041.45
2019-06-20T00:37:17.194Z,100048.73
2019-06-20T00:39:24.639Z,100048.69
2019-06-20T00:41:32.090Z,100048.83
2019-06-20T00:43:39.571Z,100045.51
2019-06-20T00:45:47.110Z,100041.45
2019-06-20T00:47:54.718Z,100043.88
2019-06-20T00:50:02.226Z,100052.27
2019-06-20T00:52:09.728Z,100046.80
2019-06-20T00:54:17.443Z,100044.95
2019-06-20T00:56:24.881Z,100040.87
2019-06-20T00:58:32.247Z,100036.31
2019-06-20T01:00:39.844Z,100037.56
2019-06-20T01:02:47.326Z,100034.52
2019-06-20T01:04:54.711Z,100033.18
2019-06-20T01:07:02.167Z,100039.09
2019-06-20T01:09:10.574Z,100039.48
2019-06-20T01:11:18.002Z,100039.92
2019-06-20T01:13:33.603Z,100038.67
2019-06-20T01:15:34.556Z,100040.87
2019-06-20T01:17:41.871Z,100038.20
2019-06-20T01:19:49.342Z,100034.47
2019-06-20T01:21:57.239Z,100038.80
2019-06-20T01:24:04.774Z,100043.98
2019-06-20T01:26:12.332Z,100037.05
2019-06-20T01:28:19.701Z,100035.93
2019-06-20T01:30:27.120Z,100020.99
2019-06-20T01:32:34.532Z,100023.98
2019-06-20T01:34:41.948Z,100021.63
2019-06-20T01:36:49.391Z,100023.14
2019-06-20T01:38:56.853Z,100016.09
2019-06-20T01:41:06.176Z,100021.95
2019-06-20T01:43:13.537Z,100021.55
2019-06-20T01:45:21.115Z,100021.23
2019-06-20T01:47:28.496Z,100027.35
2019-06-20T01:49:35.830Z,100024.63
2019-06-20T01:51:43.209Z,100022.73
2019-06-20T01:53:51.482Z,100030.34
2019-06-20T01:55:58.945Z,100029.64
2019-06-20T01:58:07.259Z,100023.23
2019-06-20T02:00:25.918Z,100030.11
2019-06-20T02:02:33.305Z,100031.57
2019-06-20T02:04:40.850Z,100028.89
2019-06-20T02:06:48.283Z,100025.47
2019-06-20T02:08:55.705Z,100028.53
2019-06-20T02:11:03.150Z,100023.83
2019-06-20T02:13:10.744Z,100029.67
2019-06-20T02:15:18.325Z,100031.33
2019-06-20T02:17:25.805Z,100027.14
2019-06-20T02:19:33.293Z,100036.22
2019-06-20T02:21:40.779Z,100028.84
2019-06-20T02:23:48.214Z,100027.20
2019-06-20T02:25:55.716Z,100020.82
2019-06-20T02:28:03.063Z,100022.10
2019-06-20T02:30:11.072Z,100021.86
2019-06-20T02:32:18.506Z,100016.86
2019-06-20T02:34:25.961Z,100021.46
2019-06-20T02:36:33.356Z,100023.77
2019-06-20T02:38:40.722Z,100017.77
2019-06-20T02:40:48.239Z,100016.61
2019-06-20T02:42:56.618Z,100021.46
2019-06-20T02:45:04.041Z,100020.82
2019-06-20T02:47:11.429Z,100017.08
2019-06-20T02:49:18.863Z,100019.09
2019-06-20T02:51:28.119Z,100021.27
2019-06-20T02:53:35.593Z,100013.25
2019-06-20T02:55:43.082Z,100007.65
2019-06-20T02:57:50.605Z,100007.84
2019-06-20T02:59:58.026Z,100015.36
2019-06-20T03:02:05.419Z,100013.75
2019-06-20T03:04:12.830Z,100013.07
2019-06-20T03:06:20.365Z,100014.08
2019-06-20T03:08:28.032Z,100012.74
2019-06-20T03:10:35.486Z,100016.44
2019-06-20T03:12:42.923Z,100016.89
2019-06-20T03:14:50.395Z,100015.75
2019-06-20T03:16:57.857Z,100010.40
2019-06-20T03:19:05.210Z,100019.76
2019-06-20T03:21:12.647Z,100021.27
2019-06-20T03:23:20.097Z,100026.50
2019-06-20T03:25:27.418Z,100020.82
2019-06-20T03:27:34.806Z,100024.13
2019-06-20T03:29:42.217Z,100014.13
2019-06-20T03:31:50.525Z,100018.53
2019-06-20T03:33:57.923Z,100021.39
2019-06-20T03:36:05.420Z,100016.89
2019-06-20T03:38:12.869Z,100021.16
2019-06-20T03:40:20.581Z,100021.89
2019-06-20T03:42:28.031Z,100018.12
2019-06-20T03:44:35.437Z,100019.33
2019-06-20T03:46:42.896Z,100015.95
2019-06-20T03:48:50.557Z,100021.30
2019-06-20T03:50:57.931Z,100021.41
2019-06-20T03:53:05.363Z,100016.05
2019-06-20T03:55:13.031Z,100021.41
2019-06-20T03:57:20.521Z,100019.48
2019-06-20T03:59:27.943Z,100009.84
2019-06-20T04:01:35.432Z,100017.73
2019-06-20T04:03:42.841Z,100016.86
2019-06-20T04:05:50.178Z,100012.80
2019-06-20T04:07:57.954Z,100015.47
2019-06-20T04:10:05.582Z,100013.08
2019-06-20T04:12:12.991Z,100009.23
2019-06-20T04:14:20.429Z,99998.66
2019-06-20T04:16:27.937Z,99999.45
2019-06-20T04:18:35.658Z,100006.05
2019-06-20T04:20:43.425Z,100007.47
2019-06-20T04:22:50.959Z,100014.75
2019-06-20T04:24:58.649Z,100012.30
2019-06-20T04:27:06.181Z,100011.00
2019-06-20T04:29:13.577Z,100011.44
2019-06-20T04:31:21.085Z,100009.09
2019-06-20T04:33:28.634Z,100003.80
2019-06-20T04:35:36.111Z,100008.32
2019-06-20T04:37:43.671Z,100007.88
2019-06-20T04:39:51.325Z,100013.30
2019-06-20T04:41:58.968Z,100018.02
2019-06-20T04:44:06.577Z,100018.41
2019-06-20T04:46:23.178Z,100017.92
2019-06-20T04:48:30.639Z,100018.31
2019-06-20T04:50:38.428Z,100018.48
2019-06-20T04:52:45.988Z,100018.88
2019-06-20T04:54:53.579Z,100015.23
2019-06-20T04:57:01.030Z,100020.27
2019-06-20T04:59:08.463Z,100025.81
2019-06-20T05:01:15.959Z,100024.59
2019-06-20T05:03:23.403Z,100031.95
2019-06-20T05:05:30.920Z,100028.31
2019-06-20T05:07:38.338Z,100035.84
2019-06-20T05:09:45.821Z,100028.34
2019-06-20T05:11:53.228Z,100027.67
2019-06-20T05:14:01.493Z,100026.00
2019-06-20T05:16:08.901Z,100025.36
2019-06-20T05:18:16.789Z,100025.05
2019-06-20T05:20:24.170Z,100028.13
2019-06-20T05:22:31.598Z,100026.05
2019-06-20T05:24:39.221Z,100027.73
2019-06-20T05:26:46.630Z,100024.89
2019-06-20T05:28:54.487Z,100030.25
2019-06-20T05:31:02.145Z,100033.48
2019-06-20T05:33:09.608Z,100036.84
2019-06-20T05:35:17.517Z,100026.45
2019-06-20T05:37:25.090Z,100036.19
2019-06-20T05:39:32.650Z,100029.50
2019-06-20T05:41:40.168Z,100033.19
2019-06-20T05:43:47.788Z,100029.16
2019-06-20T05:46:08.325Z,100028.16
2019-06-20T05:48:04.531Z,100030.87
2019-06-20T05:50:13.328Z,100029.55
2019-06-20T05:52:21.243Z,100023.66
2019-06-20T05:54:28.764Z,100030.37
2019-06-20T05:56:36.421Z,100018.62
2019-06-20T05:58:44.189Z,100028.39
2019-06-20T06:00:51.918Z,100023.87
2019-06-20T06:02:59.491Z,100025.89
2019-06-20T06:05:08.693Z,100020.16
2019-06-20T06:07:17.062Z,100028.20
2019-06-20T06:09:24.759Z,100030.72
2019-06-20T06:11:32.466Z,100032.89
2019-06-20T06:13:40.191Z,100026.05
2019-06-20T06:15:47.834Z,100030.95
2019-06-20T06:17:55.292Z,100035.61
2019-06-20T06:20:04.668Z,100028.73
2019-06-20T06:22:12.979Z,100028.13
2019-06-20T06:24:20.746Z,100036.67
2019-06-20T06:26:28.377Z,100038.02
2019-06-20T06:28:35.922Z,100039.34
2019-06-20T06:30:43.700Z,100043.71
2019-06-20T06:32:51.263Z,100042.05
2019-06-20T06:34:59.495Z,100039.69
2019-06-20T06:37:07.683Z,100042.05
2019-06-20T06:39:16.221Z,100041.20
2019-06-20T06:41:23.708Z,100047.25
2019-06-20T06:43:31.109Z,100047.77
2019-06-20T06:45:38.581Z,100049.11
2019-06-20T06:47:46.125Z,100055.99
2019-06-20T06:49:53.587Z,100049.45
2019-06-20T06:52:01.211Z,100049.79
2019-06-20T06:54:08.819Z,100055.33
2019-06-20T06:56:16.566Z,100055.85
2019-06-20T06:58:24.126Z,100055.17
2019-06-20T07:00:31.683Z,100050.96
2019-06-20T07:02:39.187Z,100049.14
2019-06-20T07:04:46.715Z,100049.12
2019-06-20T07:06:54.220Z,100047.46
2019-06-20T07:09:01.972Z,100049.16
2019-06-20T07:11:09.516Z,100045.14
2019-06-20T07:13:17.273Z,100039.43
2019-06-20T07:15:25.363Z,100043.30
2019-06-20T07:17:32.948Z,100043.31
2019-06-20T07:19:40.646Z,100043.48
2019-06-20T07:21:49.957Z,100048.00
2019-06-20T07:23:59.393Z,100049.86
2019-06-20T07:26:07.426Z,100049.35
2019-06-20T07:28:14.927Z,100049.20
2019-06-20T07:30:25.706Z,100060.63
2019-06-20T07:32:33.590Z,100058.26
2019-06-20T07:34:41.471Z,100057.91
2019-06-20T07:36:49.092Z,100065.67
2019-06-20T07:38:56.736Z,100060.97
2019-06-20T07:41:07.501Z,100065.00
2019-06-20T07:43:16.121Z,100068.02
2019-06-20T07:45:30.561Z,100068.06
2019-06-20T07:47:38.877Z,100070.40
2019-06-20T07:49:46.787Z,100067.71
2019-06-20T07:51:54.372Z,100063.01
2019-06-20T07:54:02.273Z,100068.04
2019-06-20T07:56:10.006Z,100071.73
2019-06-20T07:58:17.712Z,100070.57
2019-06-20T08:00:26.015Z,100080.81
2019-06-20T08:02:33.611Z,100084.34
2019-06-20T08:04:41.050Z,100081.95
2019-06-20T08:06:48.715Z,100079.06
2019-06-20T08:08:56.323Z,100077.77
2019-06-20T08:11:03.850Z,100080.30
2019-06-20T08:13:11.675Z,100076.73
2019-06-20T08:15:20.167Z,100077.72
2019-06-20T08:17:35.276Z,100083.96
2019-06-20T08:19:37.222Z,100081.08
2019-06-20T08:21:44.793Z,100084.64
2019-06-20T08:23:52.655Z,100089.14
2019-06-20T08:26:00.512Z,100085.12
2019-06-20T08:28:08.449Z,100090.64
2019-06-20T08:30:17.186Z,100091.68
2019-06-20T08:32:24.850Z,100091.15
2019-06-20T08:34:32.476Z,100091.78
2019-06-20T08:36:39.923Z,100084.04
2019-06-20T08:38:47.640Z,100093.77
2019-06-20T08:40:56.566Z,100094.57
2019-06-20T08:43:06.240Z,100090.67
2019-06-20T08:45:14.632Z,100090.14
2019-06-20T08:47:22.269Z,100087.55
2019-06-20T08:49:30.070Z,100085.51
2019-06-20T08:51:37.527Z,100088.89
2019-06-20T08:53:45.193Z,100092.91
2019-06-20T08:55:52.744Z,100086.81
2019-06-20T08:58:01.573Z,100093.03
2019-06-20T09:00:10.547Z,100091.70
2019-06-20T09:02:18.284Z,100095.94
2019-06-20T09:04:25.735Z,100092.91
2019-06-20T09:06:33.204Z,100093.73
2019-06-20T09:08:40.678Z,100093.58
2019-06-20T09:10:48.186Z,100098.75
2019-06-20T09:12:57.054Z,100101.41
2019-06-20T09:15:05.026Z,100102.73
2019-06-20T09:17:12.579Z,100105.30
2019-06-20T09:19:19.997Z,100103.98
2019-06-20T09:21:27.588Z,100111.52
2019-06-20T09:23:35.752Z,100107.04
2019-06-20T09:25:43.900Z,100108.55
2019-06-20T09:27:52.871Z,100113.09
2019-06-20T09:30:00.849Z,100113.80
2019-06-20T09:32:08.605Z,100113.80
2019-06-20T09:34:17.175Z,100114.50
2019-06-20T09:36:24.951Z,100114.16
2019-06-20T09:38:32.532Z,100116.52
2019-06-20T09:40:40.440Z,100119.42
2019-06-20T09:42:48.051Z,100115.86
2019-06-20T09:44:56.411Z,100122.26
2019-06-20T09:47:04.314Z,100121.91
2019-06-20T09:49:12.637Z,100128.64
2019-06-20T09:51:20.613Z,100125.77
2019-06-20T09:53:29.139Z,100130.33
2019-06-20T09:55:37.060Z,100132.37
2019-06-20T09:57:44.699Z,100131.34
2019-06-20T10:00:03.118Z,100135.39
2019-06-20T10:02:02.163Z,100139.42
2019-06-20T10:04:10.117Z,100144.65
2019-06-20T10:06:17.610Z,100139.28
2019-06-20T10:08:25.004Z,100149.22
2019-06-20T10:10:33.575Z,100139.78
2019-06-20T10:12:41.235Z,100146.70
2019-06-20T10:14:49.555Z,100147.25
2019-06-20T10:16:57.232Z,100136.84
2019-06-20T10:19:05.010Z,100135.86
2019-06-20T10:21:12.674Z,100128.61
2019-06-20T10:23:20.471Z,100130.12
2019-06-20T10:25:28.027Z,100138.20
2019-06-20T10:27:36.278Z,100129.44
2019-06-20T10:29:44.421Z,100129.79
2019-06-20T10:31:53.193Z,100129.42
2019-06-20T10:34:01.138Z,100136.66
2019-06-20T10:36:08.974Z,100133.78
2019-06-20T10:38:16.461Z,100137.11
2019-06-20T10:40:25.015Z,100126.33
2019-06-20T10:42:34.611Z,100131.69
2019-06-20T10:44:43.007Z,100127.43
2019-06-20T10:46:51.572Z,100129.98
2019-06-20T10:48:59.263Z,100133.33
2019-06-20T10:51:25.154Z,100129.31
2019-06-20T10:53:33.026Z,100128.31
2019-06-20T10:55:41.979Z,100130.80
2019-06-20T10:57:51.703Z,100125.23
2019-06-20T10:59:59.946Z,100129.96
2019-06-20T11:02:07.771Z,100132.45
2019-06-20T11:04:15.251Z,100133.62
2019-06-20T11:06:22.914Z,100124.84
2019-06-20T11:08:30.461Z,100120.14
2019-06-20T11:10:40.379Z,100120.31
2019-06-20T11:12:54.909Z,100116.58
2019-06-20T11:14:57.795Z,100113.88
2019-06-20T11:17:05.414Z,100110.80
2019-06-20T11:19:13.015Z,100110.94
2019-06-20T11:21:20.848Z,100112.55
2019-06-20T11:23:28.660Z,100106.97
2019-06-20T11:25:37.006Z,100102.50
2019-06-20T11:27:47.113Z,100094.76
2019-06-20T11:29:55.032Z,100096.16
2019-06-20T11:32:02.559Z,100087.53
2019-06-20T11:34:10.135Z,100089.97
2019-06-20T11:36:17.809Z,100083.39
2019-06-20T11:38:25.431Z,100073.17
2019-06-20T11:40:33.397Z,100075.31
2019-06-20T11:42:41.975Z,100076.59
2019-06-20T11:44:49.921Z,100069.88
2019-06-20T11:46:57.485Z,100069.28
2019-06-20T11:49:05.077Z,100062.53
2019-06-20T11:51:12.833Z,100059.58
2019-06-20T11:53:20.284Z,100063.95
2019-06-20T11:55:28.293Z,100046.38
2019-06-20T11:57:38.391Z,100045.30
2019-06-20T11:59:45.917Z,100044.75
2019-06-20T12:01:53.692Z,100040.05
2019-06-20T12:04:01.262Z,100032.47
2019-06-20T12:06:08.723Z,100021.13
2019-06-20T12:08:18.418Z,100020.22
2019-06-20T12:10:27.243Z,100018.11
2019-06-20T12:12:36.516Z,100008.86
2019-06-20T12:14:44.716Z,100005.64
2019-06-20T12:16:52.761Z,100000.83
2019-06-20T12:19:01.189Z,100000.00
2019-06-20T12:21:09.222Z,99996.95
2019-06-20T12:23:17.006Z,99995.63
2019-06-20T12:25:26.249Z,99990.72
2019-06-20T12:27:35.011Z,99991.84
2019-06-20T12:29:44.382Z,99989.06
2019-06-20T12:31:52.881Z,99982.47
2019-06-20T12:34:00.546Z,99977.55
2019-06-20T12:36:08.125Z,99980.11
2019-06-20T12:38:15.698Z,99982.10
2019-06-20T12:40:23.868Z,99985.77
2019-06-20T12:42:31.362Z,99986.67
2019-06-20T12:44:40.055Z,99986.78
2019-06-20T12:46:47.594Z,99986.63
2019-06-20T12:48:55.157Z,99989.59
2019-06-20T12:51:02.923Z,99989.02
2019-06-20T12:53:10.873Z,99985.00
2019-06-20T12:55:18.996Z,99982.71
2019-06-20T12:57:26.944Z,99984.73
2019-06-20T12:59:35.012Z,99979.88
2019-06-20T13:01:47.341Z,99981.86
2019-06-20T13:03:53.109Z,99979.50
2019-06-20T13:06:00.929Z,99974.91
2019-06-20T13:08:08.816Z,99972.20
2019-06-20T13:10:18.520Z,99969.89
2019-06-20T13:12:26.468Z,99971.88
2019-06-20T13:14:35.304Z,99962.61
2019-06-20T13:16:43.369Z,99965.36
2019-06-20T13:18:51.852Z,99965.13
2019-06-20T13:20:59.777Z,99961.19
2019-06-20T13:23:07.523Z,99960.25
2019-06-20T13:25:16.400Z,99959.44
2019-06-20T13:27:24.096Z,99967.34
2019-06-20T13:29:32.404Z,99959.84
2019-06-20T13:31:56.487Z,99963.90
2019-06-20T13:33:51.327Z,99957.55
2019-06-20T13:35:59.499Z,99953.02
2019-06-20T13:38:07.655Z,99951.80
2019-06-20T13:40:16.258Z,99949.52
2019-06-20T13:42:24.025Z,99940.55
2019-06-20T13:44:31.664Z,99946.47
2019-06-20T13:46:40.048Z,99944.76
2019-06-20T13:48:49.669Z,99947.83
2019-06-20T13:50:57.298Z,99933.13
2019-06-20T13:53:06.103Z,99933.22
2019-06-20T13:55:14.144Z,99935.03
2019-06-20T13:57:21.830Z,99937.70
2019-06-20T13:59:29.385Z,99932.59
2019-06-20T14:01:36.888Z,99933.27
2019-06-20T14:03:45.696Z,99939.56
2019-06-20T14:05:53.852Z,99937.36
2019-06-20T14:08:01.355Z,99936.84
2019-06-20T14:10:09.763Z,99934.91
2019-06-20T14:12:17.646Z,99939.25
2019-06-20T14:14:25.129Z,99941.44
2019-06-20T14:16:32.968Z,99945.14
2019-06-20T14:18:42.558Z,99945.87
2019-06-20T14:20:50.794Z,99945.52
2019-06-20T14:22:58.549Z,99945.38
2019-06-20T14:25:06.913Z,99937.38
2019-06-20T14:27:14.371Z,99939.91
2019-06-20T14:29:21.979Z,99946.12
2019-06-20T14:31:30.924Z,99941.55
2019-06-20T14:33:38.479Z,99943.64
2019-06-20T14:35:47.836Z,99942.61
2019-06-20T14:37:56.307Z,99940.30
2019-06-20T14:40:03.931Z,99943.82
2019-06-20T14:42:11.781Z,99934.98
2019-06-20T14:44:19.486Z,99932.06
2019-06-20T14:46:27.536Z,99933.72
2019-06-20T14:48:35.079Z,99934.16
2019-06-20T14:50:44.623Z,99927.38
2019-06-20T14:52:52.722Z,99928.23
2019-06-20T14:55:01.618Z,99917.28
2019-06-20T14:57:09.209Z,99917.77
2019-06-20T14:59:16.639Z,99912.05
2019-06-20T15:01:24.355Z,99912.34
2019-06-20T15:03:31.989Z,99917.05
2019-06-20T15:05:39.581Z,99917.14
2019-06-20T15:07:49.429Z,99913.11
2019-06-20T15:09:57.039Z,99912.78
2019-06-20T15:12:04.506Z,99913.52
2019-06-20T15:14:12.021Z,99912.48
2019-06-20T15:16:19.565Z,99905.89
2019-06-20T15:18:27.201Z,99899.85
2019-06-20T15:20:34.649Z,99907.37
2019-06-20T15:22:42.213Z,99910.06
2019-06-20T15:24:51.739Z,99913.32
2019-06-20T15:26:58.886Z,99914.14
2019-06-20T15:29:06.511Z,99906.11
2019-06-20T15:31:13.989Z,99912.08
2019-06-20T15:33:21.393Z,99913.44
2019-06-20T15:35:29.018Z,99919.17
2019-06-20T15:37:36.469Z,99922.41
2019-06-20T15:39:43.920Z,99924.91
2019-06-20T15:41:51.701Z,99917.41
2019-06-20T15:43:59.168Z,99920.42
2019-06-20T15:46:06.760Z,99920.95
2019-06-20T15:48:14.490Z,99918.44
2019-06-20T15:50:22.096Z,99922.70
2019-06-20T15:52:29.543Z,99916.77
2019-06-20T15:54:37.020Z,99912.80
2019-06-20T15:56:44.645Z,99909.84
2019-06-20T15:58:52.233Z,99912.55
2019-06-20T16:00:59.902Z,99907.77
2019-06-20T16:03:10.232Z,99904.96
2019-06-20T16:05:16.989Z,99899.87
2019-06-20T16:07:24.539Z,99893.92
2019-06-20T16:09:31.965Z,99890.48
2019-06-20T16:11:39.434Z,99888.60
2019-06-20T16:13:50.070Z,99882.65
2019-06-20T16:15:56.387Z,99887.77
2019-06-20T16:18:03.831Z,99882.45
2019-06-20T16:20:11.652Z,99885.06
2019-06-20T16:22:19.183Z,99876.83
2019-06-20T16:24:27.554Z,99877.86
2019-06-20T16:26:35.248Z,99880.47
2019-06-20T16:28:42.766Z,99878.48
2019-06-20T16:30:50.318Z,99874.22
2019-06-20T16:32:57.800Z,99872.73
2019-06-20T16:35:05.809Z,99875.78
2019-06-20T16:37:13.598Z,99874.09
2019-06-20T16:39:21.117Z,99869.00
2019-06-20T16:41:28.626Z,99873.36
2019-06-20T16:43:36.132Z,99866.49
2019-06-20T16:45:44.426Z,99872.02
2019-06-20T16:47:51.929Z,99880.67
2019-06-20T16:49:59.809Z,99881.39
2019-06-20T16:52:07.747Z,99879.94
2019-06-20T16:54:15.318Z,99873.16
2019-06-20T16:56:23.140Z,99877.66
2019-06-20T16:58:30.652Z,99880.45
2019-06-20T17:00:38.650Z,99873.96
2019-06-20T17:02:46.177Z,99879.97
2019-06-20T17:04:56.438Z,99888.81
2019-06-20T17:07:02.901Z,99900.02
2019-06-20T17:09:11.054Z,99909.48
2019-06-20T17:11:18.555Z,99909.66
2019-06-20T17:13:26.199Z,99918.08
2019-06-20T17:15:33.894Z,99913.80
2019-06-20T17:17:41.550Z,99920.02
2019-06-20T17:19:49.211Z,99923.30
2019-06-20T17:21:56.892Z,99929.34
2019-06-20T17:24:04.777Z,99931.80
2019-06-20T17:26:12.307Z,99935.47
2019-06-20T17:28:19.770Z,99944.20
2019-06-20T17:30:29.575Z,99946.41
2019-06-20T17:32:37.118Z,99950.32
2019-06-20T17:34:44.695Z,99950.92
2019-06-20T17:36:52.448Z,99948.63
2019-06-20T17:39:00.009Z,99956.67
2019-06-20T17:41:08.105Z,99957.75
2019-06-20T17:43:15.696Z,99966.09
2019-06-20T17:45:25.386Z,99971.75
2019-06-20T17:47:32.908Z,99980.57
2019-06-20T17:49:40.747Z,99982.26
2019-06-20T17:51:48.537Z,99982.33
2019-06-20T17:53:56.089Z,99988.44
2019-06-20T17:56:03.849Z,99988.14
2019-06-20T17:58:11.511Z,99987.22
2019-06-20T18:00:20.721Z,99995.15
2019-06-20T18:02:28.795Z,99991.21
2019-06-20T18:04:36.290Z,99990.70
2019-06-20T18:06:44.740Z,99995.61
2019-06-20T18:08:53.195Z,99998.91
2019-06-20T18:11:00.633Z,99996.57
2019-06-20T18:13:08.355Z,100001.97
2019-06-20T18:15:17.431Z,100003.66
2019-06-20T18:17:25.492Z,100003.70
2019-06-20T18:19:33.054Z,100005.11
2019-06-20T18:21:40.614Z,100003.05
2019-06-20T18:23:48.226Z,100003.41
2019-06-20T18:25:56.136Z,99999.88
2019-06-20T18:28:04.059Z,100004.52
2019-06-20T18:30:13.780Z,100003.94
2019-06-20T18:32:21.680Z,99997.18
2019-06-20T18:34:30.579Z,100000.16
2019-06-20T18:36:38.597Z,100000.00
2019-06-20T18:38:46.450Z,100005.80
2019-06-20T18:40:54.782Z,100008.84
2019-06-20T18:43:02.805Z,100005.15
2019-06-20T18:45:11.339Z,100001.55
2019-06-20T18:47:21.874Z,100003.33
2019-06-20T18:49:28.481Z,100003.60
2019-06-20T18:51:37.010Z,99997.95
2019-06-20T18:53:46.082Z,100001.27
2019-06-20T18:55:53.847Z,99997.03
2019-06-20T18:58:01.883Z,100005.66
2019-06-20T19:00:12.131Z,100003.60
2019-06-20T19:02:19.639Z,100000.25
2019-06-20T19:04:27.604Z,100003.71
2019-06-20T19:06:36.513Z,100005.16
2019-06-20T19:08:44.318Z,100002.80
2019-06-20T19:10:51.937Z,100004.39
2019-06-20T19:12:59.591Z,100006.70
2019-06-20T19:15:08.237Z,100015.83
2019-06-20T19:17:16.076Z,100011.58
2019-06-20T19:19:25.231Z,100010.42
2019-06-20T19:21:33.918Z,100013.13
2019-06-20T19:23:41.487Z,100009.34
2019-06-20T19:25:49.056Z,100008.88
2019-06-20T19:27:56.824Z,100017.39
2019-06-20T19:30:05.024Z,100022.63
2019-06-20T19:32:12.530Z,100021.75
2019-06-20T19:34:20.038Z,100019.09
2019-06-20T19:36:27.575Z,100021.80
2019-06-20T19:38:35.455Z,100025.27
2019-06-20T19:40:49.767Z,100026.00
2019-06-20T19:42:57.793Z,100032.14
2019-06-20T19:45:06.294Z,100033.45
2019-06-20T19:47:13.927Z,100023.66
2019-06-20T19:49:21.581Z,100031.10
2019-06-20T19:51:29.433Z,100029.09
2019-06-20T19:53:37.357Z,100028.23
2019-06-20T19:55:45.285Z,100024.26
2019-06-20T19:57:53.189Z,100023.20
2019-06-20T20:00:00.904Z,100035.65
2019-06-20T20:02:09.412Z,100044.44
2019-06-20T20:04:17.319Z,100049.48
2019-06-20T20:06:25.238Z,100054.19
2019-06-20T20:08:33.386Z,100051.41
2019-06-20T20:10:48.720Z,100052.00
2019-06-20T20:12:57.419Z,100050.53
2019-06-20T20:15:05.367Z,100046.38
2019-06-20T20:17:13.368Z,100055.06
2019-06-20T20:19:21.872Z,100066.33
2019-06-20T20:21:29.672Z,100066.52
2019-06-20T20:23:38.585Z,100067.29
2019-06-20T20:25:46.761Z,100082.47
2019-06-20T20:27:54.812Z,100081.11
2019-06-20T20:30:03.415Z,100085.37
2019-06-20T20:32:11.136Z,100076.45
2019-06-20T20:34:19.026Z,100072.64
2019-06-20T20:36:26.755Z,100071.48
2019-06-20T20:38:34.685Z,100073.20
2019-06-20T20:40:42.349Z,100071.94
2019-06-20T20:42:50.201Z,100084.44
2019-06-20T20:44:58.250Z,100071.28
2019-06-20T20:47:06.005Z,100081.08
2019-06-20T20:49:13.528Z,100080.05
2019-06-20T20:51:21.445Z,100079.39
2019-06-20T20:53:28.958Z,100082.09
2019-06-20T20:55:36.529Z,100085.98
2019-06-20T20:57:45.047Z,100093.23
2019-06-20T20:59:52.578Z,100099.60
2019-06-20T21:02:00.505Z,100095.41
2019-06-20T21:04:09.232Z,100103.31
2019-06-20T21:06:17.046Z,100109.21
2019-06-20T21:08:24.705Z,100107.67
2019-06-20T21:10:32.210Z,100115.06
2019-06-20T21:12:39.850Z,100131.40
2019-06-20T21:14:47.703Z,100145.33
2019-06-20T21:16:55.311Z,100170.88
2019-06-20T21:19:03.226Z,100171.71
2019-06-20T21:21:11.028Z,100155.09
2019-06-20T21:23:18.783Z,100159.45
2019-06-20T21:25:26.792Z,100170.21
2019-06-20T21:27:34.783Z,100170.56
2019-06-20T21:29:42.404Z,100162.65
2019-06-20T21:31:49.896Z,100171.55
2019-06-20T21:33:57.346Z,100175.91
2019-06-20T21:36:08.757Z,100173.57
2019-06-20T21:38:14.876Z,100175.42
2019-06-20T21:40:22.551Z,100169.21
2019-06-20T21:42:29.984Z,100170.55
2019-06-20T21:44:37.517Z,100168.54
2019-06-20T21:46:44.975Z,100176.78
2019-06-20T21:48:52.682Z,100176.94
2019-06-20T21:51:00.222Z,100180.98
2019-06-20T21:53:07.734Z,100177.27
2019-06-20T21:55:17.221Z,100178.11
2019-06-20T21:57:24.875Z,100180.59
2019-06-20T21:59:32.413Z,100189.67
2019-06-20T22:01:40.679Z,100196.39
2019-06-20T22:03:48.350Z,100201.36
2019-06-20T22:05:55.975Z,100197.81
2019-06-20T22:08:03.747Z,100196.14
2019-06-20T22:10:12.154Z,100196.37
2019-06-20T22:12:19.813Z,100187.20
2019-06-20T22:14:27.200Z,100197.52
2019-06-20T22:16:35.008Z,100190.75
2019-06-20T22:18:43.209Z,100195.36
2019-06-20T22:20:49.916Z,100187.89
2019-06-20T22:22:57.367Z,100186.27
2019-06-20T22:25:05.977Z,100187.24
2019-06-20T22:27:13.582Z,100184.45
2019-06-20T22:29:21.233Z,100185.80
2019-06-20T22:31:28.750Z,100176.36
2019-06-20T22:33:36.287Z,100175.32
2019-06-20T22:35:45.879Z,100167.05
2019-06-20T22:37:53.764Z,100161.73
2019-06-20T22:40:01.260Z,100155.33
2019-06-20T22:42:08.696Z,100154.53
2019-06-20T22:44:16.101Z,100156.27
2019-06-20T22:46:23.622Z,100154.66
2019-06-20T22:48:31.116Z,100151.16
2019-06-20T22:50:38.803Z,100142.02
2019-06-20T22:52:46.341Z,100143.42
2019-06-20T22:54:53.768Z,100147.49
2019-06-20T22:57:01.423Z,100153.64
2019-06-20T22:59:08.925Z,100151.48
2019-06-20T23:01:16.378Z,100146.44
2019-06-20T23:03:23.895Z,100143.84
2019-06-20T23:05:31.333Z,100145.09
2019-06-20T23:07:38.879Z,100150.41
2019-06-20T23:09:46.325Z,100146.02
2019-06-20T23:11:53.870Z,100151.02
2019-06-20T23:14:01.448Z,100145.56
2019-06-20T23:16:09.033Z,100143.16
2019-06-20T23:18:16.605Z,100140.30
2019-06-20T23:20:24.726Z,100126.76
2019-06-20T23:22:32.575Z,100130.31
2019-06-20T23:24:40.432Z,100135.13
2019-06-20T23:26:47.981Z,100134.19
2019-06-20T23:29:13.236Z,100130.73
2019-06-20T23:31:20.677Z,100118.18
2019-06-20T23:33:28.111Z,100114.75
2019-06-20T23:35:35.949Z,100102.11
2019-06-20T23:37:43.587Z,100098.59
2019-06-20T23:39:51.072Z,100090.75
2019-06-20T23:41:58.626Z,100094.95
2019-06-20T23:44:07.208Z,100089.63
2019-06-20T23:46:14.706Z,100082.18
2019-06-20T23:48:22.318Z,100080.95
2019-06-20T23:50:29.981Z,100074.91
2019-06-20T23:52:39.038Z,100069.55
2019-06-20T23:54:46.487Z,100071.75
2019-06-20T23:56:53.906Z,100066.39
2019-06-20T23:59:01.527Z,100068.85
